Terminal Aerodrome Forecast
Issued by NWS

Home | Current Version | Previous Version | Text Only | Print | Product List | Glossary Off
Versions: 1 2 3 4 5 6 7 8 9 10 11 12 13 14 15 16

824
FTUS43 KTOP 231728
TAFMHK
TAF
KMHK 231728Z 2318/2418 34010KT P6SM BKN050
     FM232000 34010KT P6SM VCSH BKN050
     FM240100 33007KT P6SM BKN040=

USA.gov is the U.S. government's official web portal to all federal, state and local government web resources and services.